Historyczne dane pomiarowe

Dodano dane terminowe – wersja testowa.

Dane z okresu 1951-2019

Wersja bazy: 1.34 [2019-03-16, lista zmian], aktualizacja planowana na 2019-04-15

Dane meteo z obszaru Polski uzyskane na podstawie danych udostępnionych przez Instytut Meteorologii i Gospodarki Wodnej – Państwowy Instytut Badawczy.

 

Wybierz Datę:    

       

TemperaturaWilgotnośćZachmurzenieWiatrCiśnienieWidzialnośćZjawiska
 Data    tng td wb rh cc ccl cl cm ch dir g1 g2 mslp ppp      
1999-07-06 00:00:00 23.3--- 17.2 19.369wxwxwx2wx--1008.0 985.9 0.0---wxw1
1999-07-06 01:00:00 21.8--- 17.5 19.077wxwxwx3wx--1008.3 986.1----wx
1999-07-06 02:00:00 20.7--- 17.5 18.682wxwxwx2wx--1008.9 986.6----wx
1999-07-06 03:00:00 21.0--- 17.3 18.679wxwxwx3wx--1008.4 986.1----wx
1999-07-06 04:00:00 20.6--- 17.9 18.884wxwxwx3wx--1008.7 986.4----wx
1999-07-06 05:00:00 21.1--- 17.7 18.981wxwxwxwx3wx--1008.4 986.1----wx
1999-07-06 06:00:00 21.5--- 18.6 19.684wxwxwxwx1wx--1009.1 986.9 0.0---wx
1999-07-06 07:00:00 19.4--- 17.9 18.491wxwxwx4wx--1009.0 986.6----wxw1
1999-07-06 08:00:00 19.8--- 18.6 19.093wxwxwx5wx--1009.5 987.1----wxw1
1999-07-06 09:00:00 21.6--- 19.2 20.086wxwxwxwx3wx--1010.1 987.8----wxw1
1999-07-06 10:00:00 22.8--- 19.5 20.682wxwxwx2wx--1010.5 988.3----wx
1999-07-06 11:00:00 23.1--- 18.8 20.277wxwxwx3wx--1010.9 988.7----wx
1999-07-06 12:00:00 23.1--- 19.1 20.478wxwxwx2wx--1011.1 988.9 6.8---wxw1
1999-07-06 13:00:00 22.6--- 18.7 20.079wxwxwx2wx--1011.5 989.3----wx
1999-07-06 14:00:00 22.8--- 18.6 20.077wxwxwxwx3wx--1011.1 988.9----wx
1999-07-06 15:00:00 22.6--- 18.4 19.877wxwxwxwx3wx--1011.0 988.8----wx
1999-07-06 16:00:00 22.2--- 18.3 19.678wxwxwxwx4wx--1011.2 989.0----wx
1999-07-06 17:00:00 21.6--- 18.3 19.481wxwxwxwx3wx--1011.8 989.5----wx
1999-07-06 18:00:00 21.2--- 19.3 19.989wxwxwxwx4wx--1012.2 989.9 0.0---wx
1999-07-06 19:00:00 20.4--- 17.3 18.483wxwxwxwx3wx--1012.4 990.0----wx
1999-07-06 20:00:00 19.4--- 17.4 18.188wxwxwx3wx--1013.6 991.1----wxw1
1999-07-06 21:00:00 18.8--- 17.3 17.891wxwxwx4wx--1014.0 991.4----wxw1
1999-07-06 22:00:00 17.8--- 17.0 17.395wxwxwx4wx--1013.5 990.9----wxw1
1999-07-06 23:00:00 17.4--- 16.9 17.197wxwxwx3wx--1013.8 991.1----wxw1

 

Źródłem pochodzenia danych jest Instytut Meteorologii i Gospodarki Wodnej – Państwowy Instytut Badawczy. Dane Instytutu Meteorologii i Gospodarki Wodnej – Państwowego Instytutu Badawczego zostały przetworzone.

Dane źródłowe można odnaleźć na stronie https://dane.imgw.pl